EDT,Max TemperatureF,Mean TemperatureF,Min TemperatureF,Max Dew PointF,MeanDew PointF,Min DewpointF,Max Humidity, Mean Humidity, Min Humidity, Max Sea Level PressureIn, Mean Sea Level PressureIn, Min Sea Level PressureIn, Max VisibilityMiles, Mean VisibilityMiles, Min VisibilityMiles, Max Wind SpeedMPH, Mean Wind SpeedMPH, Max Gust SpeedMPH,PrecipitationIn, CloudCover, Events, WindDirDegrees
2012-6-1,62,56,51,56,51,46,88,82,74,29.85,29.63,29.53,10,6,2,18,11,25,0.24,8,Rain,348
2012-6-2,78,64,51,49,44,38,82,56,24,29.72,29.68,29.64,10,10,7,25,15,36,0.01,5,Rain,248
2012-6-3,84,72,61,53,48,41,72,47,23,29.78,29.72,29.70,10,10,10,31,14,39,0.00,2,,262
2012-6-4,75,62,51,52,50,47,88,61,42,29.91,29.84,29.77,10,10,6,15,5,22,0.00,3,,12
2012-6-5,73,63,52,52,49,44,88,66,40,30.02,29.97,29.91,10,9,3,15,8,23,0.02,5,Rain,46
2012-6-6,81,62,46,50,46,43,89,55,28,30.07,30.03,29.99,10,10,4,12,3,,0.01,1,,338
2012-6-7,86,68,53,52,48,45,83,50,26,30.08,30.04,30.00,10,10,10,15,5,22,0.00,0,,318
2012-6-8,89,74,60,52,47,43,62,41,23,30.06,29.99,29.91,10,10,10,12,7,22,0.00,0,,289
2012-6-9,93,78,62,56,52,50,65,43,24,29.95,29.91,29.87,10,10,10,18,9,26,0.00,0,,241
2012-6-10,93,78,63,57,53,50,70,43,24,30.04,30.00,29.95,10,10,10,14,5,18,0.00,0,,172
2012-6-11,79,72,66,69,65,60,82,74,60,29.98,29.93,29.85,10,9,4,13,7,20,0.06,5,Rain,167
2012-6-12,84,75,64,68,55,45,87,52,27,30.08,29.90,29.79,10,10,5,20,10,28,0.00,0,,294
2012-6-13,77,62,48,47,43,39,74,49,26,30.21,30.17,30.11,10,10,10,14,8,18,0.00,0,,33
2012-6-14,84,65,48,53,46,39,74,51,24,30.23,30.19,30.15,10,10,10,10,5,20,0.00,0,,84
2012-6-15,90,70,53,61,52,43,83,53,21,30.18,30.15,30.12,10,10,10,10,4,,0.00,0,,118
2012-6-16,90,76,61,65,60,56,86,58,35,30.18,30.09,29.95,10,9,5,17,5,21,0.00,1,,129
2012-6-17,84,76,68,70,65,55,84,69,46,29.96,29.87,29.81,10,9,2,13,7,21,0.25,4,Rain,246
2012-6-18,86,72,59,68,62,54,88,73,45,29.94,29.86,29.80,10,8,1,20,4,31,0.34,2,Rain,178
2012-6-19,98,86,75,68,66,63,69,51,35,30.02,29.96,29.88,10,10,10,16,11,23,0.00,0,Rain,216
2012-6-20,97,83,70,65,61,57,76,48,27,30.10,30.02,29.92,10,9,2,16,10,25,0.00,0,Rain,212
2012-6-21,98,84,71,67,63,60,75,53,32,29.96,29.89,29.79,10,10,9,24,11,31,0.01,2,,245
2012-6-22,87,75,64,63,57,49,87,58,29,29.98,29.94,29.91,10,10,10,15,6,18,0.00,1,,332
2012-6-23,84,70,55,58,54,50,87,58,32,30.05,30.02,29.98,10,10,10,14,2,,0.00,1,,137
2012-6-24,91,80,68,60,57,55,70,50,31,30.04,29.96,29.87,10,10,10,14,4,,0.00,4,,263
2012-6-25,80,71,60,59,48,41,70,49,26,30.04,30.00,29.92,10,10,10,20,11,28,0.00,1,,16
2012-6-26,86,68,51,49,45,42,77,45,22,30.06,30.00,29.94,10,10,2,14,4,24,0.00,0,Rain,326
2012-6-27,93,74,57,53,48,44,69,39,19,30.01,29.92,29.82,10,10,2,15,5,24,0.00,0,,223
2012-6-28,105,87,69,73,61,50,57,43,32,29.85,29.75,29.67,10,10,9,17,7,17,0.00,0,,243
2012-6-29,98,84,71,70,61,48,82,51,20,29.88,29.80,29.77,10,10,8,15,7,,0.00,0,,291
2012-6-30,98,82,68,64,61,60,78,49,30,29.83,29.79,29.75,10,10,10,15,8,21,0.00,0,,258